sensor_id;sensor_type;location;lat;lon;timestamp;temperature;humidity
37938;DHT22;23763;48.130;11.602;2023-05-07T00:02:22;15.10;99.90
37938;DHT22;23763;48.130;11.602;2023-05-07T00:04:48;15.10;99.90
37938;DHT22;23763;48.130;11.602;2023-05-07T00:07:14;15.10;99.90
37938;DHT22;23763;48.130;11.602;2023-05-07T00:09:40;15.10;99.90
37938;DHT22;23763;48.130;11.602;2023-05-07T00:12:06;15.00;99.90
37938;DHT22;23763;48.130;11.602;2023-05-07T00:14:31;15.00;99.90
37938;DHT22;23763;48.130;11.602;2023-05-07T00:16:57;15.00;99.90
37938;DHT22;23763;48.130;11.602;2023-05-07T00:19:22;15.00;99.90
37938;DHT22;23763;48.130;11.602;2023-05-07T00:21:48;14.90;99.90
37938;DHT22;23763;48.130;11.602;2023-05-07T00:24:14;14.90;99.90
37938;DHT22;23763;48.130;11.602;2023-05-07T00:26:39;14.90;99.90
37938;DHT22;23763;48.130;11.602;2023-05-07T00:29:05;14.90;99.90
37938;DHT22;23763;48.130;11.602;2023-05-07T00:31:30;14.90;99.90
37938;DHT22;23763;48.130;11.602;2023-05-07T00:33:56;14.90;99.90
37938;DHT22;23763;48.130;11.602;2023-05-07T00:36:21;14.90;99.90
37938;DHT22;23763;48.130;11.602;2023-05-07T00:38:47;14.80;99.90
37938;DHT22;23763;48.130;11.602;2023-05-07T00:41:13;14.80;99.90
37938;DHT22;23763;48.130;11.602;2023-05-07T00:43:38;14.70;99.90
37938;DHT22;23763;48.130;11.602;2023-05-07T00:46:04;14.70;99.90
37938;DHT22;23763;48.130;11.602;2023-05-07T00:48:30;14.60;99.90
37938;DHT22;23763;48.130;11.602;2023-05-07T00:50:57;14.60;99.90
37938;DHT22;23763;48.130;11.602;2023-05-07T00:53:22;14.60;99.90
37938;DHT22;23763;48.130;11.602;2023-05-07T00:55:48;14.50;99.90
37938;DHT22;23763;48.130;11.602;2023-05-07T00:58:14;14.50;99.90
37938;DHT22;23763;48.130;11.602;2023-05-07T01:00:40;14.50;99.90
37938;DHT22;23763;48.130;11.602;2023-05-07T01:03:06;14.40;99.90
37938;DHT22;23763;48.130;11.602;2023-05-07T01:05:31;14.30;99.90
37938;DHT22;23763;48.130;11.602;2023-05-07T01:07:58;14.30;99.90
37938;DHT22;23763;48.130;11.602;2023-05-07T01:10:24;14.30;99.90
37938;DHT22;23763;48.130;11.602;2023-05-07T01:12:50;14.30;99.90
37938;DHT22;23763;48.130;11.602;2023-05-07T01:15:17;14.30;99.90
37938;DHT22;23763;48.130;11.602;2023-05-07T01:17:43;14.30;99.90
37938;DHT22;23763;48.130;11.602;2023-05-07T01:20:10;14.30;99.90
37938;DHT22;23763;48.130;11.602;2023-05-07T01:22:37;14.30;99.90
37938;DHT22;23763;48.130;11.602;2023-05-07T01:25:04;14.20;99.90
37938;DHT22;23763;48.130;11.602;2023-05-07T01:27:30;14.30;99.90
37938;DHT22;23763;48.130;11.602;2023-05-07T01:29:56;14.30;99.90
37938;DHT22;23763;48.130;11.602;2023-05-07T01:32:29;14.30;99.90
37938;DHT22;23763;48.130;11.602;2023-05-07T01:34:55;14.30;99.90
37938;DHT22;23763;48.130;11.602;2023-05-07T01:37:23;14.40;99.90
37938;DHT22;23763;48.130;11.602;2023-05-07T01:39:50;14.40;99.90
37938;DHT22;23763;48.130;11.602;2023-05-07T01:42:15;14.30;99.90
37938;DHT22;23763;48.130;11.602;2023-05-07T01:44:41;14.30;99.90
37938;DHT22;23763;48.130;11.602;2023-05-07T01:47:07;14.30;99.90
37938;DHT22;23763;48.130;11.602;2023-05-07T01:49:34;14.30;99.90
37938;DHT22;23763;48.130;11.602;2023-05-07T01:52:00;14.30;99.90
37938;DHT22;23763;48.130;11.602;2023-05-07T01:54:26;14.20;99.90
37938;DHT22;23763;48.130;11.602;2023-05-07T01:56:56;14.00;99.90
37938;DHT22;23763;48.130;11.602;2023-05-07T01:59:22;14.00;99.90
37938;DHT22;23763;48.130;11.602;2023-05-07T02:01:48;14.00;99.90
37938;DHT22;23763;48.130;11.602;2023-05-07T02:04:13;14.00;99.90
37938;DHT22;23763;48.130;11.602;2023-05-07T02:06:39;13.90;99.90
37938;DHT22;23763;48.130;11.602;2023-05-07T02:09:05;13.80;99.90
37938;DHT22;23763;48.130;11.602;2023-05-07T02:11:31;13.80;99.90
37938;DHT22;23763;48.130;11.602;2023-05-07T02:13:56;13.80;99.90
37938;DHT22;23763;48.130;11.602;2023-05-07T02:16:22;13.80;99.90
37938;DHT22;23763;48.130;11.602;2023-05-07T02:18:49;13.90;99.90
37938;DHT22;23763;48.130;11.602;2023-05-07T02:21:15;13.90;99.90
37938;DHT22;23763;48.130;11.602;2023-05-07T02:23:40;13.80;99.90
37938;DHT22;23763;48.130;11.602;2023-05-07T02:26:06;13.90;99.90
37938;DHT22;23763;48.130;11.602;2023-05-07T02:28:31;13.90;99.90
37938;DHT22;23763;48.130;11.602;2023-05-07T02:30:57;13.80;99.90
37938;DHT22;23763;48.130;11.602;2023-05-07T02:33:26;14.00;99.90
37938;DHT22;23763;48.130;11.602;2023-05-07T02:35:51;13.90;99.90
37938;DHT22;23763;48.130;11.602;2023-05-07T02:38:17;13.80;99.90
37938;DHT22;23763;48.130;11.602;2023-05-07T02:40:43;13.90;99.90
37938;DHT22;23763;48.130;11.602;2023-05-07T02:43:09;13.90;99.90
37938;DHT22;23763;48.130;11.602;2023-05-07T02:45:34;13.80;99.90
37938;DHT22;23763;48.130;11.602;2023-05-07T02:48:01;13.80;99.90
37938;DHT22;23763;48.130;11.602;2023-05-07T02:50:27;13.60;99.90
37938;DHT22;23763;48.130;11.602;2023-05-07T02:52:52;13.60;99.90
37938;DHT22;23763;48.130;11.602;2023-05-07T02:55:18;13.40;99.90
37938;DHT22;23763;48.130;11.602;2023-05-07T02:57:43;13.50;99.90
37938;DHT22;23763;48.130;11.602;2023-05-07T03:00:14;13.50;99.90
37938;DHT22;23763;48.130;11.602;2023-05-07T03:02:40;13.60;99.90
37938;DHT22;23763;48.130;11.602;2023-05-07T03:05:06;13.50;99.90
37938;DHT22;23763;48.130;11.602;2023-05-07T03:07:32;13.50;99.90
37938;DHT22;23763;48.130;11.602;2023-05-07T03:09:57;13.40;99.90
37938;DHT22;23763;48.130;11.602;2023-05-07T03:12:23;13.40;99.90
37938;DHT22;23763;48.130;11.602;2023-05-07T03:14:48;13.50;99.90
37938;DHT22;23763;48.130;11.602;2023-05-07T03:17:14;13.40;99.90
37938;DHT22;23763;48.130;11.602;2023-05-07T03:19:41;13.30;99.90
37938;DHT22;23763;48.130;11.602;2023-05-07T03:22:07;13.40;99.90
37938;DHT22;23763;48.130;11.602;2023-05-07T03:24:32;13.50;99.90
37938;DHT22;23763;48.130;11.602;2023-05-07T03:26:58;13.50;99.90
37938;DHT22;23763;48.130;11.602;2023-05-07T03:29:23;13.50;99.90
37938;DHT22;23763;48.130;11.602;2023-05-07T03:31:49;13.50;99.90
37938;DHT22;23763;48.130;11.602;2023-05-07T03:34:15;13.50;99.90
37938;DHT22;23763;48.130;11.602;2023-05-07T03:36:42;13.50;99.90
37938;DHT22;23763;48.130;11.602;2023-05-07T03:39:08;13.60;99.90
37938;DHT22;23763;48.130;11.602;2023-05-07T03:41:33;13.50;99.90
37938;DHT22;23763;48.130;11.602;2023-05-07T03:43:59;13.30;99.90
37938;DHT22;23763;48.130;11.602;2023-05-07T03:46:24;13.40;99.90
37938;DHT22;23763;48.130;11.602;2023-05-07T03:48:51;13.20;99.90
37938;DHT22;23763;48.130;11.602;2023-05-07T03:51:17;13.20;99.90
37938;DHT22;23763;48.130;11.602;2023-05-07T03:53:43;13.30;99.90
37938;DHT22;23763;48.130;11.602;2023-05-07T03:56:08;13.30;99.90
37938;DHT22;23763;48.130;11.602;2023-05-07T03:58:34;13.40;99.90
37938;DHT22;23763;48.130;11.602;2023-05-07T04:01:00;13.40;99.90
37938;DHT22;23763;48.130;11.602;2023-05-07T04:03:26;13.40;99.90
37938;DHT22;23763;48.130;11.602;2023-05-07T04:05:52;13.30;99.90
37938;DHT22;23763;48.130;11.602;2023-05-07T04:08:17;13.30;99.90
37938;DHT22;23763;48.130;11.602;2023-05-07T04:10:43;13.20;99.90
37938;DHT22;23763;48.130;11.602;2023-05-07T04:13:09;13.20;99.90
37938;DHT22;23763;48.130;11.602;2023-05-07T04:15:35;13.20;99.90
37938;DHT22;23763;48.130;11.602;2023-05-07T04:18:01;13.20;99.90
37938;DHT22;23763;48.130;11.602;2023-05-07T04:20:26;13.30;99.90
37938;DHT22;23763;48.130;11.602;2023-05-07T04:22:52;13.30;99.90
37938;DHT22;23763;48.130;11.602;2023-05-07T04:25:17;13.40;99.90
37938;DHT22;23763;48.130;11.602;2023-05-07T04:27:43;13.30;99.90
37938;DHT22;23763;48.130;11.602;2023-05-07T04:30:09;13.30;99.90
37938;DHT22;23763;48.130;11.602;2023-05-07T04:32:34;13.40;99.90
37938;DHT22;23763;48.130;11.602;2023-05-07T04:35:01;13.40;99.90
37938;DHT22;23763;48.130;11.602;2023-05-07T04:37:27;13.50;99.90
37938;DHT22;23763;48.130;11.602;2023-05-07T04:39:52;13.60;99.90
37938;DHT22;23763;48.130;11.602;2023-05-07T04:42:18;13.80;99.90
37938;DHT22;23763;48.130;11.602;2023-05-07T04:44:44;13.90;99.90
37938;DHT22;23763;48.130;11.602;2023-05-07T04:47:11;14.10;99.90
37938;DHT22;23763;48.130;11.602;2023-05-07T04:49:38;14.00;99.90
37938;DHT22;23763;48.130;11.602;2023-05-07T04:52:03;14.20;99.90
37938;DHT22;23763;48.130;11.602;2023-05-07T04:54:29;14.30;99.90
37938;DHT22;23763;48.130;11.602;2023-05-07T04:56:55;14.30;99.90
37938;DHT22;23763;48.130;11.602;2023-05-07T04:59:21;14.30;99.90
37938;DHT22;23763;48.130;11.602;2023-05-07T05:01:46;14.20;99.90
37938;DHT22;23763;48.130;11.602;2023-05-07T05:04:12;14.20;99.90
37938;DHT22;23763;48.130;11.602;2023-05-07T05:06:38;14.20;99.90
37938;DHT22;23763;48.130;11.602;2023-05-07T05:09:04;14.30;99.90
37938;DHT22;23763;48.130;11.602;2023-05-07T05:11:30;14.30;99.90
37938;DHT22;23763;48.130;11.602;2023-05-07T05:13:59;14.20;99.90
37938;DHT22;23763;48.130;11.602;2023-05-07T05:16:26;14.20;99.90
37938;DHT22;23763;48.130;11.602;2023-05-07T05:18:51;14.10;99.90
37938;DHT22;23763;48.130;11.602;2023-05-07T05:21:17;14.30;99.90
37938;DHT22;23763;48.130;11.602;2023-05-07T05:23:58;14.40;99.90
37938;DHT22;23763;48.130;11.602;2023-05-07T05:26:56;14.50;99.90
37938;DHT22;23763;48.130;11.602;2023-05-07T05:29:35;14.70;99.90
37938;DHT22;23763;48.130;11.602;2023-05-07T05:32:21;14.90;99.90
37938;DHT22;23763;48.130;11.602;2023-05-07T05:35:26;14.90;99.90
37938;DHT22;23763;48.130;11.602;2023-05-07T05:37:52;15.10;99.90
37938;DHT22;23763;48.130;11.602;2023-05-07T05:40:20;15.00;99.90
37938;DHT22;23763;48.130;11.602;2023-05-07T05:42:48;14.90;99.90
37938;DHT22;23763;48.130;11.602;2023-05-07T05:45:14;14.90;99.90
37938;DHT22;23763;48.130;11.602;2023-05-07T05:47:40;15.00;99.90
37938;DHT22;23763;48.130;11.602;2023-05-07T05:50:06;14.90;99.90
37938;DHT22;23763;48.130;11.602;2023-05-07T05:52:32;15.00;99.90
37938;DHT22;23763;48.130;11.602;2023-05-07T05:54:58;15.10;99.90
37938;DHT22;23763;48.130;11.602;2023-05-07T05:57:23;15.10;99.90
37938;DHT22;23763;48.130;11.602;2023-05-07T05:59:49;15.10;99.90
37938;DHT22;23763;48.130;11.602;2023-05-07T06:02:15;15.10;99.90
37938;DHT22;23763;48.130;11.602;2023-05-07T06:04:40;15.10;99.90
37938;DHT22;23763;48.130;11.602;2023-05-07T06:07:07;15.30;99.90
37938;DHT22;23763;48.130;11.602;2023-05-07T06:09:33;15.30;99.90
37938;DHT22;23763;48.130;11.602;2023-05-07T06:11:59;15.50;99.90
37938;DHT22;23763;48.130;11.602;2023-05-07T06:14:24;15.60;99.90
37938;DHT22;23763;48.130;11.602;2023-05-07T06:16:50;15.80;99.90
37938;DHT22;23763;48.130;11.602;2023-05-07T06:19:15;15.90;99.90
37938;DHT22;23763;48.130;11.602;2023-05-07T06:21:43;16.00;99.90
37938;DHT22;23763;48.130;11.602;2023-05-07T06:24:09;16.10;99.90
37938;DHT22;23763;48.130;11.602;2023-05-07T06:26:35;16.20;99.90
37938;DHT22;23763;48.130;11.602;2023-05-07T06:29:00;16.30;99.90
37938;DHT22;23763;48.130;11.602;2023-05-07T06:31:29;16.40;99.90
37938;DHT22;23763;48.130;11.602;2023-05-07T06:33:56;16.50;99.90
37938;DHT22;23763;48.130;11.602;2023-05-07T06:36:22;16.60;99.90
37938;DHT22;23763;48.130;11.602;2023-05-07T06:38:47;16.70;99.90
37938;DHT22;23763;48.130;11.602;2023-05-07T06:41:13;16.90;99.90
37938;DHT22;23763;48.130;11.602;2023-05-07T06:43:38;17.00;99.90
37938;DHT22;23763;48.130;11.602;2023-05-07T06:46:04;17.10;99.90
37938;DHT22;23763;48.130;11.602;2023-05-07T06:48:30;17.20;99.90
37938;DHT22;23763;48.130;11.602;2023-05-07T06:50:56;17.30;99.90
37938;DHT22;23763;48.130;11.602;2023-05-07T06:53:23;17.50;99.90
37938;DHT22;23763;48.130;11.602;2023-05-07T06:55:49;17.60;99.90
37938;DHT22;23763;48.130;11.602;2023-05-07T06:58:14;17.80;99.90
37938;DHT22;23763;48.130;11.602;2023-05-07T07:00:40;18.00;99.90
37938;DHT22;23763;48.130;11.602;2023-05-07T07:03:06;18.20;99.90
37938;DHT22;23763;48.130;11.602;2023-05-07T07:05:32;18.50;99.90
37938;DHT22;23763;48.130;11.602;2023-05-07T07:07:57;18.60;99.90
37938;DHT22;23763;48.130;11.602;2023-05-07T07:10:23;18.90;99.90
37938;DHT22;23763;48.130;11.602;2023-05-07T07:12:50;18.90;99.90
37938;DHT22;23763;48.130;11.602;2023-05-07T07:15:16;19.00;99.90
37938;DHT22;23763;48.130;11.602;2023-05-07T07:17:42;19.20;99.90
37938;DHT22;23763;48.130;11.602;2023-05-07T07:20:08;19.30;99.90
37938;DHT22;23763;48.130;11.602;2023-05-07T07:22:33;19.40;99.90
37938;DHT22;23763;48.130;11.602;2023-05-07T07:24:59;19.50;99.90
37938;DHT22;23763;48.130;11.602;2023-05-07T07:27:25;19.70;99.90
37938;DHT22;23763;48.130;11.602;2023-05-07T07:29:51;19.80;99.90
37938;DHT22;23763;48.130;11.602;2023-05-07T07:32:16;19.60;99.90
37938;DHT22;23763;48.130;11.602;2023-05-07T07:34:42;19.50;99.90
37938;DHT22;23763;48.130;11.602;2023-05-07T07:37:07;19.60;99.90
37938;DHT22;23763;48.130;11.602;2023-05-07T07:39:33;19.90;99.90
37938;DHT22;23763;48.130;11.602;2023-05-07T07:41:59;20.80;99.90
37938;DHT22;23763;48.130;11.602;2023-05-07T07:44:25;22.90;99.90
37938;DHT22;23763;48.130;11.602;2023-05-07T07:46:51;25.60;99.90
37938;DHT22;23763;48.130;11.602;2023-05-07T07:49:17;27.90;99.90
37938;DHT22;23763;48.130;11.602;2023-05-07T07:51:42;29.50;95.60
37938;DHT22;23763;48.130;11.602;2023-05-07T07:54:08;31.30;91.70
37938;DHT22;23763;48.130;11.602;2023-05-07T07:56:34;31.80;88.50
37938;DHT22;23763;48.130;11.602;2023-05-07T07:59:00;32.50;83.90
37938;DHT22;23763;48.130;11.602;2023-05-07T08:01:26;33.20;80.60
37938;DHT22;23763;48.130;11.602;2023-05-07T08:03:52;32.80;78.70
37938;DHT22;23763;48.130;11.602;2023-05-07T08:06:18;33.30;78.00
37938;DHT22;23763;48.130;11.602;2023-05-07T08:08:44;33.70;75.50
37938;DHT22;23763;48.130;11.602;2023-05-07T08:11:09;33.30;76.30
37938;DHT22;23763;48.130;11.602;2023-05-07T08:13:36;34.00;74.00
37938;DHT22;23763;48.130;11.602;2023-05-07T08:16:03;34.50;71.90
37938;DHT22;23763;48.130;11.602;2023-05-07T08:18:29;34.40;70.50
37938;DHT22;23763;48.130;11.602;2023-05-07T08:20:55;34.30;70.80
37938;DHT22;23763;48.130;11.602;2023-05-07T08:23:21;33.80;70.20
37938;DHT22;23763;48.130;11.602;2023-05-07T08:25:47;34.00;68.90
37938;DHT22;23763;48.130;11.602;2023-05-07T08:28:13;33.80;68.50
37938;DHT22;23763;48.130;11.602;2023-05-07T08:30:38;34.10;68.70
37938;DHT22;23763;48.130;11.602;2023-05-07T08:33:04;33.80;68.60
37938;DHT22;23763;48.130;11.602;2023-05-07T08:35:29;33.60;67.80
37938;DHT22;23763;48.130;11.602;2023-05-07T08:37:55;34.20;67.60
37938;DHT22;23763;48.130;11.602;2023-05-07T08:40:25;33.20;68.50
37938;DHT22;23763;48.130;11.602;2023-05-07T08:42:52;31.90;69.50
37938;DHT22;23763;48.130;11.602;2023-05-07T08:45:19;32.10;71.50
37938;DHT22;23763;48.130;11.602;2023-05-07T08:47:49;31.40;71.00
37938;DHT22;23763;48.130;11.602;2023-05-07T08:50:17;30.60;74.60
37938;DHT22;23763;48.130;11.602;2023-05-07T08:52:43;30.30;75.40
37938;DHT22;23763;48.130;11.602;2023-05-07T08:55:10;30.90;74.30
37938;DHT22;23763;48.130;11.602;2023-05-07T08:57:36;30.90;74.40
37938;DHT22;23763;48.130;11.602;2023-05-07T09:00:03;30.70;75.60
37938;DHT22;23763;48.130;11.602;2023-05-07T09:02:29;30.90;75.30
37938;DHT22;23763;48.130;11.602;2023-05-07T09:04:55;30.70;75.90
37938;DHT22;23763;48.130;11.602;2023-05-07T09:07:21;30.50;76.00
37938;DHT22;23763;48.130;11.602;2023-05-07T09:09:47;29.80;76.10
37938;DHT22;23763;48.130;11.602;2023-05-07T09:12:13;28.60;78.10
37938;DHT22;23763;48.130;11.602;2023-05-07T09:15:05;28.80;79.00
37938;DHT22;23763;48.130;11.602;2023-05-07T09:17:31;29.10;77.80
37938;DHT22;23763;48.130;11.602;2023-05-07T09:20:06;28.60;78.00
37938;DHT22;23763;48.130;11.602;2023-05-07T09:22:33;28.40;79.20
37938;DHT22;23763;48.130;11.602;2023-05-07T09:24:59;28.40;79.50
37938;DHT22;23763;48.130;11.602;2023-05-07T09:27:25;28.00;81.00
37938;DHT22;23763;48.130;11.602;2023-05-07T09:29:51;28.00;82.20
37938;DHT22;23763;48.130;11.602;2023-05-07T09:32:17;27.90;81.40
37938;DHT22;23763;48.130;11.602;2023-05-07T09:34:43;27.10;82.50
37938;DHT22;23763;48.130;11.602;2023-05-07T09:37:08;26.90;83.30
37938;DHT22;23763;48.130;11.602;2023-05-07T09:39:48;26.50;83.60
37938;DHT22;23763;48.130;11.602;2023-05-07T09:42:14;26.10;85.70
37938;DHT22;23763;48.130;11.602;2023-05-07T09:44:48;26.00;85.40
37938;DHT22;23763;48.130;11.602;2023-05-07T09:49:59;25.20;84.60
37938;DHT22;23763;48.130;11.602;2023-05-07T09:52:29;25.60;82.20
37938;DHT22;23763;48.130;11.602;2023-05-07T09:54:59;25.30;85.00
37938;DHT22;23763;48.130;11.602;2023-05-07T09:57:42;25.20;85.60
37938;DHT22;23763;48.130;11.602;2023-05-07T10:00:44;25.20;86.10
37938;DHT22;23763;48.130;11.602;2023-05-07T10:03:27;25.70;85.50
37938;DHT22;23763;48.130;11.602;2023-05-07T10:05:55;25.60;85.60
37938;DHT22;23763;48.130;11.602;2023-05-07T10:08:21;25.20;84.80
37938;DHT22;23763;48.130;11.602;2023-05-07T10:11:03;24.70;86.20
37938;DHT22;23763;48.130;11.602;2023-05-07T10:13:35;24.50;87.20
37938;DHT22;23763;48.130;11.602;2023-05-07T10:16:11;24.50;87.70
37938;DHT22;23763;48.130;11.602;2023-05-07T10:18:54;24.60;86.90
37938;DHT22;23763;48.130;11.602;2023-05-07T10:21:30;24.50;87.30
37938;DHT22;23763;48.130;11.602;2023-05-07T10:24:21;24.50;88.70
37938;DHT22;23763;48.130;11.602;2023-05-07T10:27:06;24.40;88.50
37938;DHT22;23763;48.130;11.602;2023-05-07T10:35:15;23.90;86.50
37938;DHT22;23763;48.130;11.602;2023-05-07T10:37:42;23.90;86.50
37938;DHT22;23763;48.130;11.602;2023-05-07T10:40:09;23.80;86.80
37938;DHT22;23763;48.130;11.602;2023-05-07T10:42:35;23.80;86.70
37938;DHT22;23763;48.130;11.602;2023-05-07T10:45:16;23.90;85.90
37938;DHT22;23763;48.130;11.602;2023-05-07T10:50:34;24.00;86.60
37938;DHT22;23763;48.130;11.602;2023-05-07T10:58:52;24.10;87.30
37938;DHT22;23763;48.130;11.602;2023-05-07T11:04:16;24.00;90.20
37938;DHT22;23763;48.130;11.602;2023-05-07T11:09:57;24.00;90.20
37938;DHT22;23763;48.130;11.602;2023-05-07T11:15:09;24.10;91.10
37938;DHT22;23763;48.130;11.602;2023-05-07T11:17:53;24.10;90.80
37938;DHT22;23763;48.130;11.602;2023-05-07T11:20:19;23.80;91.50
37938;DHT22;23763;48.130;11.602;2023-05-07T11:22:45;24.00;91.10
37938;DHT22;23763;48.130;11.602;2023-05-07T11:25:10;24.10;91.70
37938;DHT22;23763;48.130;11.602;2023-05-07T11:27:42;24.30;90.80
37938;DHT22;23763;48.130;11.602;2023-05-07T11:30:09;24.50;90.40
37938;DHT22;23763;48.130;11.602;2023-05-07T11:32:35;24.60;90.80
37938;DHT22;23763;48.130;11.602;2023-05-07T11:35:00;24.40;90.30
37938;DHT22;23763;48.130;11.602;2023-05-07T11:37:27;24.60;90.30
37938;DHT22;23763;48.130;11.602;2023-05-07T11:40:08;24.40;90.50
37938;DHT22;23763;48.130;11.602;2023-05-07T11:42:37;24.20;90.80
37938;DHT22;23763;48.130;11.602;2023-05-07T11:45:04;24.30;90.80
37938;DHT22;23763;48.130;11.602;2023-05-07T11:47:31;24.30;91.20
37938;DHT22;23763;48.130;11.602;2023-05-07T11:49:57;24.40;91.00
37938;DHT22;23763;48.130;11.602;2023-05-07T11:52:27;24.30;91.00
37938;DHT22;23763;48.130;11.602;2023-05-07T11:54:57;24.20;91.00
37938;DHT22;23763;48.130;11.602;2023-05-07T11:57:24;24.30;91.00
37938;DHT22;23763;48.130;11.602;2023-05-07T12:00:02;24.10;91.00
37938;DHT22;23763;48.130;11.602;2023-05-07T12:02:29;24.30;90.80
37938;DHT22;23763;48.130;11.602;2023-05-07T12:05:00;24.30;90.90
37938;DHT22;23763;48.130;11.602;2023-05-07T12:07:26;24.40;90.90
37938;DHT22;23763;48.130;11.602;2023-05-07T12:10:11;24.50;91.20
37938;DHT22;23763;48.130;11.602;2023-05-07T12:12:38;24.30;90.60
37938;DHT22;23763;48.130;11.602;2023-05-07T12:15:08;24.30;90.50
37938;DHT22;23763;48.130;11.602;2023-05-07T12:17:51;24.40;90.70
37938;DHT22;23763;48.130;11.602;2023-05-07T12:20:18;24.50;90.60
37938;DHT22;23763;48.130;11.602;2023-05-07T12:22:44;24.40;90.60
37938;DHT22;23763;48.130;11.602;2023-05-07T12:25:35;24.40;90.60
37938;DHT22;23763;48.130;11.602;2023-05-07T12:28:05;24.20;90.00
37938;DHT22;23763;48.130;11.602;2023-05-07T12:30:41;24.00;90.30
37938;DHT22;23763;48.130;11.602;2023-05-07T12:33:07;24.10;90.60
37938;DHT22;23763;48.130;11.602;2023-05-07T12:35:41;24.30;89.70
37938;DHT22;23763;48.130;11.602;2023-05-07T12:38:17;24.50;89.60
37938;DHT22;23763;48.130;11.602;2023-05-07T12:40:53;24.30;89.70
37938;DHT22;23763;48.130;11.602;2023-05-07T12:43:26;24.00;89.30
37938;DHT22;23763;48.130;11.602;2023-05-07T12:45:57;24.00;90.20
37938;DHT22;23763;48.130;11.602;2023-05-07T12:48:24;23.90;89.50
37938;DHT22;23763;48.130;11.602;2023-05-07T12:50:56;23.70;90.10
37938;DHT22;23763;48.130;11.602;2023-05-07T12:53:25;23.80;90.50
37938;DHT22;23763;48.130;11.602;2023-05-07T12:55:54;23.80;89.30
37938;DHT22;23763;48.130;11.602;2023-05-07T12:58:22;23.60;89.60
37938;DHT22;23763;48.130;11.602;2023-05-07T13:00:49;23.70;90.10
37938;DHT22;23763;48.130;11.602;2023-05-07T13:03:33;24.10;88.80
37938;DHT22;23763;48.130;11.602;2023-05-07T13:06:01;24.10;88.70
37938;DHT22;23763;48.130;11.602;2023-05-07T13:08:36;24.10;87.30
37938;DHT22;23763;48.130;11.602;2023-05-07T13:11:03;23.80;87.30
37938;DHT22;23763;48.130;11.602;2023-05-07T13:13:34;23.60;86.80
37938;DHT22;23763;48.130;11.602;2023-05-07T13:16:01;23.80;86.90
37938;DHT22;23763;48.130;11.602;2023-05-07T13:18:27;24.00;87.90
37938;DHT22;23763;48.130;11.602;2023-05-07T13:20:56;24.00;86.50
37938;DHT22;23763;48.130;11.602;2023-05-07T13:23:22;24.10;86.10
37938;DHT22;23763;48.130;11.602;2023-05-07T13:25:49;23.70;84.70
37938;DHT22;23763;48.130;11.602;2023-05-07T13:28:15;23.60;85.40
37938;DHT22;23763;48.130;11.602;2023-05-07T13:30:47;23.50;85.40
37938;DHT22;23763;48.130;11.602;2023-05-07T13:33:13;23.70;85.20
37938;DHT22;23763;48.130;11.602;2023-05-07T13:35:50;23.70;84.90
37938;DHT22;23763;48.130;11.602;2023-05-07T13:38:16;23.70;84.30
37938;DHT22;23763;48.130;11.602;2023-05-07T13:40:42;23.70;83.80
37938;DHT22;23763;48.130;11.602;2023-05-07T13:43:07;24.00;83.50
37938;DHT22;23763;48.130;11.602;2023-05-07T13:45:33;24.00;82.90
37938;DHT22;23763;48.130;11.602;2023-05-07T13:47:59;24.00;83.20
37938;DHT22;23763;48.130;11.602;2023-05-07T13:50:27;24.00;83.60
37938;DHT22;23763;48.130;11.602;2023-05-07T13:52:55;24.20;83.60
37938;DHT22;23763;48.130;11.602;2023-05-07T13:58:47;24.10;84.00
37938;DHT22;23763;48.130;11.602;2023-05-07T14:01:13;23.90;84.50
37938;DHT22;23763;48.130;11.602;2023-05-07T14:03:39;24.00;85.30
37938;DHT22;23763;48.130;11.602;2023-05-07T14:06:05;24.00;84.10
37938;DHT22;23763;48.130;11.602;2023-05-07T14:08:43;24.00;84.70
37938;DHT22;23763;48.130;11.602;2023-05-07T14:17:58;24.00;85.00
37938;DHT22;23763;48.130;11.602;2023-05-07T14:24:13;23.80;85.10
37938;DHT22;23763;48.130;11.602;2023-05-07T14:27:05;23.80;86.40
37938;DHT22;23763;48.130;11.602;2023-05-07T14:29:59;23.70;86.10
37938;DHT22;23763;48.130;11.602;2023-05-07T14:32:51;23.40;87.20
37938;DHT22;23763;48.130;11.602;2023-05-07T14:35:49;23.30;88.80
37938;DHT22;23763;48.130;11.602;2023-05-07T14:38:15;23.30;89.00
37938;DHT22;23763;48.130;11.602;2023-05-07T14:40:44;23.40;88.70
37938;DHT22;23763;48.130;11.602;2023-05-07T14:43:11;23.40;88.00
37938;DHT22;23763;48.130;11.602;2023-05-07T14:45:39;23.40;88.80
37938;DHT22;23763;48.130;11.602;2023-05-07T14:48:05;23.30;89.40
37938;DHT22;23763;48.130;11.602;2023-05-07T14:50:31;23.30;90.00
37938;DHT22;23763;48.130;11.602;2023-05-07T14:52:56;23.40;90.30
37938;DHT22;23763;48.130;11.602;2023-05-07T14:55:22;23.30;90.30
37938;DHT22;23763;48.130;11.602;2023-05-07T14:57:48;23.40;90.40
37938;DHT22;23763;48.130;11.602;2023-05-07T15:00:16;23.60;90.30
37938;DHT22;23763;48.130;11.602;2023-05-07T15:02:44;23.40;90.30
37938;DHT22;23763;48.130;11.602;2023-05-07T15:05:23;23.30;90.70
37938;DHT22;23763;48.130;11.602;2023-05-07T15:07:56;23.20;90.20
37938;DHT22;23763;48.130;11.602;2023-05-07T15:10:22;22.90;90.40
37938;DHT22;23763;48.130;11.602;2023-05-07T15:12:47;22.80;90.70
37938;DHT22;23763;48.130;11.602;2023-05-07T15:15:13;22.70;91.30
37938;DHT22;23763;48.130;11.602;2023-05-07T15:17:39;22.70;91.40
37938;DHT22;23763;48.130;11.602;2023-05-07T15:20:05;22.60;91.30
37938;DHT22;23763;48.130;11.602;2023-05-07T15:22:31;22.50;91.30
37938;DHT22;23763;48.130;11.602;2023-05-07T15:24:56;22.60;91.50
37938;DHT22;23763;48.130;11.602;2023-05-07T15:27:22;22.70;91.60
37938;DHT22;23763;48.130;11.602;2023-05-07T15:29:48;22.50;91.40
37938;DHT22;23763;48.130;11.602;2023-05-07T15:32:13;22.50;91.40
37938;DHT22;23763;48.130;11.602;2023-05-07T15:34:39;22.50;91.60
37938;DHT22;23763;48.130;11.602;2023-05-07T15:37:05;22.50;91.10
37938;DHT22;23763;48.130;11.602;2023-05-07T15:39:31;22.40;91.10
37938;DHT22;23763;48.130;11.602;2023-05-07T15:41:56;22.40;91.20
37938;DHT22;23763;48.130;11.602;2023-05-07T15:44:22;22.30;91.30
37938;DHT22;23763;48.130;11.602;2023-05-07T15:46:51;22.20;91.50
37938;DHT22;23763;48.130;11.602;2023-05-07T15:49:17;22.20;91.60
37938;DHT22;23763;48.130;11.602;2023-05-07T15:51:42;22.20;91.70
37938;DHT22;23763;48.130;11.602;2023-05-07T15:54:08;21.90;91.40
37938;DHT22;23763;48.130;11.602;2023-05-07T15:56:33;21.70;91.80
37938;DHT22;23763;48.130;11.602;2023-05-07T15:58:59;21.70;91.90
37938;DHT22;23763;48.130;11.602;2023-05-07T16:01:25;21.80;91.80